Time;durP1;ratioP1;P1;durP2;ratioP2;P2;SDS_P1;SDS_P2;PMS_P1;PMS_P2;Temp;Humidity;BMP_temperature;BMP_pressure;BME280_temperature;BME280_humidity;BME280_pressure;Samples;Min_cycle;Max_cycle;Signal;HPM_P1;HPM_P2
2022/08/15 00:03:36;;;;;;;23.50;19.07;;;;;;;21.80;80.08;99766.39;3572340;81;31641;-81
2022/08/15 00:08:42;;;;;;;24.02;19.12;;;;;;;21.79;80.14;99764.84;3594033;80;98633;-81
2022/08/15 00:13:49;;;;;;;26.87;17.73;;;;;;;21.73;80.01;99773.72;3525858;81;25822;-82
2022/08/15 00:18:50;;;;;;;32.50;21.60;;;;;;;21.60;80.64;99773.09;3585786;79;98687;-81
2022/08/15 00:23:51;;;;;;;26.20;20.55;;;;;;;21.50;81.85;99770.13;3569432;81;31632;-82
2022/08/15 00:28:52;;;;;;;26.68;19.82;;;;;;;21.37;81.96;99772.92;3561075;81;98690;-81
2022/08/15 00:33:53;;;;;;;25.25;19.77;;;;;;;21.34;82.23;99774.63;3586925;81;32749;-83
2022/08/15 00:38:55;;;;;;;27.40;20.75;;;;;;;21.27;82.81;99769.34;3583366;81;97796;-81
2022/08/15 00:43:59;;;;;;;24.77;19.98;;;;;;;21.30;82.72;99776.03;3582765;81;32956;-81
2022/08/15 00:49:00;;;;;;;24.80;19.47;;;;;;;21.34;82.45;99766.23;3574564;81;98635;-82
2022/08/15 00:54:24;;;;;;;27.10;20.92;;;;;;;21.35;82.35;99765.59;3581363;81;31806;-82
2022/08/15 00:59:31;;;;;;;24.67;20.25;;;;;;;21.32;82.40;99767.94;3584142;81;99025;-81
2022/08/15 01:04:34;;;;;;;25.45;20.27;;;;;;;21.31;82.49;99767.78;3589927;80;31742;-82
2022/08/15 01:09:37;;;;;;;27.73;21.37;;;;;;;21.34;82.36;99763.42;3576899;81;98650;-81
2022/08/15 01:14:43;;;;;;;26.27;21.17;;;;;;;21.26;82.84;99757.20;3579714;81;31688;-84
2022/08/15 01:20:01;;;;;;;29.25;20.92;;;;;;;21.12;84.72;99757.19;3564568;81;98879;-82
2022/08/15 01:25:27;;;;;;;25.68;20.50;;;;;;;21.04;84.42;99761.51;3562263;81;31706;-83
2022/08/15 01:30:34;;;;;;;27.98;21.77;;;;;;;21.02;84.50;99769.59;3496458;82;98906;-82
2022/08/15 01:35:35;;;;;;;28.50;21.60;;;;;;;21.00;85.18;99759.50;3503940;81;31664;-82
2022/08/15 01:41:16;;;;;;;23.75;19.57;;;;;;;20.94;85.46;99763.36;3500658;83;98834;-83
2022/08/15 01:46:20;;;;;;;25.20;20.65;;;;;;;20.88;85.55;99763.78;3500333;82;51423;-81
2022/08/15 01:51:21;;;;;;;28.60;21.50;;;;;;;20.84;85.66;99756.95;3566611;80;31863;-82
2022/08/15 01:56:41;;;;;;;25.40;19.62;;;;;;;20.82;86.22;99751.02;3586342;80;99024;-82
2022/08/15 02:01:50;;;;;;;24.30;18.32;;;;;;;20.80;86.07;99749.92;3511330;82;34286;-81
2022/08/15 02:06:52;;;;;;;26.62;21.02;;;;;;;20.77;86.48;99745.27;3535861;82;98944;-82
2022/08/15 02:11:56;;;;;;;24.98;18.77;;;;;;;20.76;87.20;99739.52;3535393;82;31740;-83
2022/08/15 02:16:58;;;;;;;28.30;20.20;;;;;;;20.72;86.85;99744.47;3512128;81;98748;-81
2022/08/15 02:21:59;;;;;;;27.85;19.25;;;;;;;20.67;87.26;99742.28;3513074;82;31706;-84
2022/08/15 02:27:01;;;;;;;24.00;19.60;;;;;;;20.59;87.75;99739.63;3522585;81;98619;-81
2022/08/15 02:32:11;;;;;;;24.27;18.85;;;;;;;20.57;87.66;99740.69;3546621;81;31783;-82
2022/08/15 02:37:18;;;;;;;27.67;19.27;;;;;;;20.59;87.40;99737.59;3513365;82;98657;-82
2022/08/15 02:42:19;;;;;;;29.15;19.90;;;;;;;20.66;87.20;99735.14;3540652;82;31754;-82
2022/08/15 02:47:20;;;;;;;25.05;19.07;;;;;;;20.68;87.06;99740.43;3569071;80;98485;-83
2022/08/15 02:52:22;;;;;;;22.80;17.90;;;;;;;20.67;86.95;99736.69;3590496;81;31604;-81
2022/08/15 02:57:23;;;;;;;26.65;20.37;;;;;;;20.63;87.03;99724.86;3604335;81;98867;-83
2022/08/15 03:02:26;;;;;;;26.82;19.40;;;;;;;20.64;87.01;99725.80;3606359;81;31602;-81
2022/08/15 03:07:27;;;;;;;25.45;18.80;;;;;;;20.60;87.09;99716.77;3604177;81;98704;-82
2022/08/15 03:12:28;;;;;;;26.80;19.17;;;;;;;20.56;87.31;99713.37;3607983;81;32193;-82
2022/08/15 03:17:29;;;;;;;25.17;19.30;;;;;;;20.51;87.45;99725.77;3606904;81;98695;-81
2022/08/15 03:22:45;;;;;;;26.20;19.20;;;;;;;20.47;87.72;99724.52;3609018;81;32358;-81
2022/08/15 03:27:47;;;;;;;23.27;18.27;;;;;;;20.46;87.57;99723.56;3606001;81;98717;-81
2022/08/15 03:32:55;;;;;;;27.27;18.98;;;;;;;20.47;87.75;99718.13;3597247;81;32789;-81
2022/08/15 03:37:58;;;;;;;25.17;19.05;;;;;;;20.42;88.14;99717.33;3608497;81;98747;-83
2022/08/15 03:43:04;;;;;;;27.45;19.40;;;;;;;20.37;88.46;99721.52;3612773;81;31618;-81
2022/08/15 03:48:06;;;;;;;;;;;;;;;20.38;88.55;99716.08;3616207;81;99022;-84
2022/08/15 03:53:08;;;;;;;23.47;17.50;;;;;;;20.31;89.79;99712.18;3587585;81;31745;-84
2022/08/15 03:58:10;;;;;;;22.05;17.20;;;;;;;20.29;88.63;99720.86;3557170;81;98787;-84
2022/08/15 04:03:24;;;;;;;26.68;19.92;;;;;;;20.31;88.88;99720.56;3564776;82;32296;-84
2022/08/15 04:08:30;;;;;;;28.67;18.35;;;;;;;20.35;88.80;99724.00;3584372;81;99212;-84
2022/08/15 04:13:30;;;;;;;26.73;19.40;;;;;;;20.31;88.82;99716.38;3541860;82;32330;-85
2022/08/15 04:18:31;;;;;;;25.43;20.00;;;;;;;20.33;88.88;99719.47;3555468;81;98854;-84
2022/08/15 04:23:33;;;;;;;26.05;18.98;;;;;;;20.31;89.19;99713.58;3561272;81;30383;-85
2022/08/15 04:28:35;;;;;;;25.43;19.12;;;;;;;20.32;89.39;99710.17;3554721;81;99047;-83
2022/08/15 04:33:37;;;;;;;25.92;18.42;;;;;;;20.26;89.99;99706.40;3565332;81;32468;-84
2022/08/15 04:38:40;;;;;;;23.55;17.50;;;;;;;20.23;90.41;99701.74;3477805;83;99135;-84
2022/08/15 04:43:44;;;;;;;23.10;17.80;;;;;;;20.21;90.50;99707.02;3564805;80;31725;-83
2022/08/15 04:48:45;;;;;;;27.45;17.73;;;;;;;20.22;90.77;99701.59;3534099;82;98675;-83
2022/08/15 04:53:46;;;;;;;23.95;16.95;;;;;;;20.29;90.85;99695.71;3523713;82;31660;-83
2022/08/15 04:58:48;;;;;;;25.30;18.20;;;;;;;20.31;91.08;99693.22;3516984;83;98609;-84
2022/08/15 05:03:49;;;;;;;24.43;17.67;;;;;;;20.30;91.56;99687.48;3551182;81;30171;-83
2022/08/15 05:08:50;;;;;;;24.67;17.15;;;;;;;20.33;91.46;99696.36;3594280;80;98657;-81
2022/08/15 05:13:53;;;;;;;25.95;17.92;;;;;;;20.39;91.44;99684.09;3575117;81;31704;-83
2022/08/15 05:18:53;;;;;;;23.65;17.50;;;;;;;20.44;91.54;99680.70;3593033;81;98961;-82
2022/08/15 05:23:55;;;;;;;22.22;17.55;;;;;;;20.50;91.75;99692.06;3536261;82;31255;-83
2022/08/15 05:28:56;;;;;;;23.15;17.20;;;;;;;20.56;91.92;99697.20;3537811;81;98700;-83
2022/08/15 05:33:57;;;;;;;23.67;17.62;;;;;;;20.63;91.89;99697.69;3541967;81;31724;-84
2022/08/15 05:39:03;;;;;;;24.85;18.52;;;;;;;20.77;91.89;99695.69;3530576;81;98980;-85
2022/08/15 05:44:26;;;;;;;24.82;17.32;;;;;;;20.98;91.91;99694.06;3547250;81;31734;-83
2022/08/15 05:49:52;;;;;;;20.37;15.38;;;;;;;21.27;91.58;99685.98;3522887;82;98864;-83
2022/08/15 05:55:04;;;;;;;22.00;15.85;;;;;;;21.68;91.29;99685.36;3546277;81;31965;-84
2022/08/15 06:00:11;;;;;;;23.55;15.72;;;;;;;22.09;89.97;99693.81;3535060;81;98938;-82
2022/08/15 06:05:34;;;;;;;21.23;15.75;;;;;;;22.51;89.17;99690.36;3542564;81;34708;-81
2022/08/15 06:10:55;;;;;;;21.60;16.05;;;;;;;23.02;88.26;99693.02;3527933;81;98491;-81
2022/08/15 06:16:17;;;;;;;20.17;15.90;;;;;;;23.47;86.94;99689.86;3532561;81;25957;-83
2022/08/15 06:21:44;;;;;;;21.17;14.65;;;;;;;23.82;84.98;99683.75;3546909;81;98711;-82
2022/08/15 06:27:03;;;;;;;20.55;13.72;;;;;;;24.00;83.03;99685.77;3547006;81;98658;-79
2022/08/15 06:32:12;;;;;;;22.20;15.63;;;;;;;24.07;82.90;99682.55;3559723;82;25976;-84
2022/08/15 06:37:43;;;;;;;19.95;14.47;;;;;;;24.23;81.95;99678.45;3541057;82;99157;-83
2022/08/15 06:42:45;;;;;;;20.92;14.20;;;;;;;24.29;81.58;99691.34;3549065;82;26012;-81
2022/08/15 06:47:49;;;;;;;20.88;14.43;;;;;;;24.41;81.15;99688.09;3555985;81;98553;-83
2022/08/15 06:52:58;;;;;;;19.95;14.25;;;;;;;24.56;80.82;99679.73;3496704;83;25866;-83
2022/08/15 06:58:14;;;;;;;20.43;14.33;;;;;;;24.59;79.87;99672.39;3455047;83;98968;-82
2022/08/15 07:03:33;;;;;;;18.67;12.60;;;;;;;24.67;79.75;99674.30;3512759;82;26414;-82
2022/08/15 07:08:58;;;;;;;21.90;13.95;;;;;;;24.82;79.41;99675.64;3523752;82;98588;-81
2022/08/15 07:14:19;;;;;;;18.77;14.33;;;;;;;24.85;78.74;99672.62;3523119;82;25836;-81
2022/08/15 07:19:20;;;;;;;17.82;13.15;;;;;;;24.93;78.16;99668.75;3548609;82;98951;-81
2022/08/15 07:24:29;;;;;;;16.23;12.50;;;;;;;25.03;78.10;99671.57;3532038;81;31885;-80
2022/08/15 07:29:47;;;;;;;18.10;12.95;;;;;;;25.22;77.80;99671.44;3583450;79;98727;-81
2022/08/15 07:35:12;;;;;;;20.62;14.03;;;;;;;25.42;77.68;99675.64;3529668;81;64737;-81
2022/08/15 07:40:31;;;;;;;18.30;13.33;;;;;;;25.51;76.45;99676.90;3519811;82;98676;-81
2022/08/15 07:45:39;;;;;;;18.82;13.75;;;;;;;25.71;75.93;99671.98;3522694;82;26442;-80
2022/08/15 07:50:44;;;;;;;18.30;13.68;;;;;;;25.89;75.57;99672.28;3530199;82;98682;-81
2022/08/15 07:56:13;;;;;;;17.50;12.90;;;;;;;26.13;74.97;99676.98;3542831;81;26579;-80
2022/08/15 08:01:31;;;;;;;24.05;13.90;;;;;;;26.30;74.52;99674.44;3529239;81;98414;-80
2022/08/15 08:06:38;;;;;;;20.68;13.65;;;;;;;26.60;74.07;99677.75;3524857;81;98676;-80
2022/08/15 08:11:53;;;;;;;17.52;13.13;;;;;;;26.77;72.32;99678.62;3536473;82;27291;-80
2022/08/15 08:16:58;;;;;;;20.32;14.83;;;;;;;26.93;72.14;99682.95;3520531;82;98662;-80
2022/08/15 08:22:18;;;;;;;18.40;12.58;;;;;;;27.19;72.03;99680.77;3529235;81;25983;-81
2022/08/15 08:27:36;;;;;;;17.95;13.40;;;;;;;27.62;71.27;99680.00;3501224;81;98782;-82
2022/08/15 08:32:55;;;;;;;19.05;13.75;;;;;;;28.23;70.83;99680.19;3503229;82;25895;-81
2022/08/15 08:38:19;;;;;;;18.07;13.35;;;;;;;28.85;68.73;99685.27;3511378;82;99113;-82
2022/08/15 08:43:39;;;;;;;17.23;13.10;;;;;;;29.67;67.74;99677.08;3484084;83;50120;-83
2022/08/15 08:49:04;;;;;;;16.85;12.82;;;;;;;30.53;65.51;99676.78;3504884;82;98743;-78
2022/08/15 08:54:40;;;;;;;15.85;13.25;;;;;;;31.04;63.31;99681.40;3513698;82;26289;-83
2022/08/15 09:00:02;;;;;;;20.02;13.72;;;;;;;31.54;60.82;99673.04;3468688;82;98741;-80
2022/08/15 09:05:11;;;;;;;17.65;12.65;;;;;;;31.72;59.93;99682.95;3518298;82;26878;-80
2022/08/15 09:10:18;;;;;;;15.95;12.63;;;;;;;32.09;58.37;99677.23;3511021;82;98472;-80
2022/08/15 09:15:26;;;;;;;16.55;12.65;;;;;;;32.70;57.27;99676.19;3509460;82;29797;-83
2022/08/15 09:20:32;;;;;;;18.52;13.13;;;;;;;32.88;53.82;99672.48;3516965;82;98732;-83
2022/08/15 09:25:39;;;;;;;14.58;12.10;;;;;;;33.02;51.78;99678.31;3504753;82;47988;-82
2022/08/15 09:30:43;;;;;;;14.78;13.03;;;;;;;33.44;53.45;99675.73;3520980;82;98688;-81
2022/08/15 09:35:58;;;;;;;15.63;11.50;;;;;;;33.80;50.30;99673.26;3527524;82;26470;-82
2022/08/15 09:41:25;;;;;;;15.03;12.53;;;;;;;34.37;51.15;99662.11;3513417;82;98654;-81
2022/08/15 09:47:08;;;;;;;14.95;11.95;;;;;;;34.83;49.00;99661.80;3512116;82;105393;-82
2022/08/15 09:52:38;;;;;;;16.55;12.35;;;;;;;34.89;47.76;99661.76;3517849;82;26480;-81
2022/08/15 09:57:53;;;;;;;15.65;11.00;;;;;;;35.31;47.71;99648.07;3514015;82;98635;-84
2022/08/15 10:03:02;;;;;;;12.63;10.60;;;;;;;35.70;45.48;99647.62;3507134;82;70749;-82
2022/08/15 10:08:07;;;;;;;16.60;11.38;;;;;;;36.11;44.22;99635.20;3506847;82;98982;-83
2022/08/15 10:13:28;;;;;;;13.38;10.45;;;;;;;36.54;43.25;99633.59;3508191;83;51553;-81
2022/08/15 10:18:51;;;;;;;16.15;11.03;;;;;;;36.76;42.83;99623.44;3488828;82;98691;-80
2022/08/15 10:23:53;;;;;;;15.90;11.20;;;;;;;37.35;41.12;99626.81;3525795;82;26142;-80
2022/08/15 10:29:11;;;;;;;14.33;12.15;;;;;;;37.11;41.30;99618.11;3520370;82;98999;-81
2022/08/15 10:34:21;;;;;;;13.60;11.50;;;;;;;37.29;41.49;99603.30;3530369;81;26513;-83
2022/08/15 10:39:59;;;;;;;13.78;11.48;;;;;;;37.31;40.67;99612.74;3515722;82;98836;-80
2022/08/15 10:45:11;;;;;;;14.58;11.50;;;;;;;37.27;40.33;99608.84;3486488;81;26229;-84
2022/08/15 10:50:48;;;;;;;15.23;12.00;;;;;;;37.24;39.75;99607.81;3526472;81;98581;-81
2022/08/15 10:55:49;;;;;;;14.07;11.00;;;;;;;36.93;39.72;99605.70;3526730;81;26326;-81
2022/08/15 11:01:06;;;;;;;17.70;10.98;;;;;;;36.70;40.02;99599.28;3530007;81;98745;-81
2022/08/15 11:06:15;;;;;;;14.43;10.20;;;;;;;36.75;39.39;99596.87;3530617;81;103591;-79
2022/08/15 11:11:21;;;;;;;16.23;10.32;;;;;;;36.61;39.33;99583.31;3527790;81;98735;-79
2022/08/15 11:16:36;;;;;;;14.50;11.12;;;;;;;36.88;38.71;99574.37;3535583;81;34234;-81
2022/08/15 11:21:55;;;;;;;13.90;9.60;;;;;;;36.67;38.85;99567.45;3530957;81;29621;-80
2022/08/15 11:27:19;;;;;;;15.48;10.32;;;;;;;36.72;38.34;99560.74;3511559;82;98572;-81
2022/08/15 11:32:34;;;;;;;13.68;8.93;;;;;;;36.38;37.63;99569.67;3513820;82;29845;-82
2022/08/15 11:37:42;;;;;;;15.68;9.58;;;;;;;35.62;38.48;99566.66;3514978;82;98711;-83
2022/08/15 11:42:46;;;;;;;13.70;9.43;;;;;;;35.33;38.31;99553.83;3524415;82;29988;-83
2022/08/15 11:47:54;;;;;;;11.10;8.85;;;;;;;35.28;38.41;99544.09;3509418;82;98701;-82
2022/08/15 11:53:01;;;;;;;13.80;8.53;;;;;;;35.47;38.45;99540.22;3511412;82;25872;-84
2022/08/15 11:58:07;;;;;;;12.55;8.53;;;;;;;35.74;35.97;99536.37;3503959;82;98499;-82
2022/08/15 12:03:32;;;;;;;13.80;9.08;;;;;;;35.61;37.32;99522.97;3512307;82;26422;-83
2022/08/15 12:08:34;;;;;;;14.68;9.20;;;;;;;35.54;37.47;99519.44;3510216;82;98577;-84
2022/08/15 12:13:36;;;;;;;15.32;10.15;;;;;;;35.75;37.65;99520.03;3509637;82;26327;-84
2022/08/15 12:18:38;;;;;;;12.53;9.70;;;;;;;36.11;37.32;99506.93;3499404;83;98632;-84
2022/08/15 12:23:47;;;;;;;15.40;10.43;;;;;;;36.40;36.63;99515.42;3523448;82;32020;-81
2022/08/15 12:28:48;;;;;;;17.10;10.23;;;;;;;35.60;36.80;99522.88;3529449;81;98960;-86
2022/08/15 12:34:09;;;;;;;17.37;10.72;;;;;;;34.95;36.65;99520.02;3587602;80;26729;-84
2022/08/15 12:39:13;;;;;;;13.93;10.05;;;;;;;34.55;38.25;99514.59;3515139;81;99014;-84
2022/08/15 12:44:23;;;;;;;;;;;;;;;34.09;39.44;99522.08;3525128;81;34470;-83
2022/08/15 12:49:24;;;;;;;13.40;9.38;;;;;;;33.67;39.80;99516.96;3528259;82;84516;-84
2022/08/15 12:54:25;;;;;;;14.63;9.93;;;;;;;33.89;39.96;99512.13;3527869;82;28744;-84
2022/08/15 12:59:26;;;;;;;13.15;9.75;;;;;;;34.00;39.92;99506.13;3503020;83;98770;-83
2022/08/15 13:04:27;;;;;;;14.63;8.85;;;;;;;33.66;40.12;99512.55;3520818;81;26342;-84
2022/08/15 13:09:32;;;;;;;11.75;9.33;;;;;;;33.37;41.39;99501.75;3552146;80;98601;-84
2022/08/15 13:14:36;;;;;;;12.23;9.20;;;;;;;33.31;41.54;99496.84;3546852;80;26560;-84
2022/08/15 13:25:05;;;;;;;10.58;8.30;;;;;;;33.43;41.79;99470.22;3543380;80;26182;-83
2022/08/15 13:30:11;;;;;;;10.10;7.58;;;;;;;33.58;41.51;99466.85;3586131;80;98563;-84
2022/08/15 13:35:16;;;;;;;11.95;7.85;;;;;;;33.47;40.96;99463.51;3604350;80;26537;-83
2022/08/15 13:40:22;;;;;;;13.15;7.50;;;;;;;33.13;40.73;99459.92;3590021;80;98357;-84
2022/08/15 13:45:24;;;;;;;11.97;6.80;;;;;;;33.26;40.88;99445.59;3597185;80;25960;-83
2022/08/15 13:50:30;;;;;;;9.43;6.45;;;;;;;33.27;39.19;99446.47;3575073;80;98227;-82
2022/08/15 13:55:31;;;;;;;10.28;6.42;;;;;;;33.31;39.07;99445.50;3604826;80;77798;-84
2022/08/15 14:00:33;;;;;;;9.78;6.70;;;;;;;33.29;38.82;99439.56;3599101;80;98315;-83
2022/08/15 14:05:34;;;;;;;9.58;7.10;;;;;;;33.31;38.32;99438.38;3615598;80;25968;-84
2022/08/15 14:10:37;;;;;;;10.70;6.72;;;;;;;33.33;37.69;99424.95;3594075;80;98222;-83
2022/08/15 14:15:39;;;;;;;11.48;6.53;;;;;;;33.33;38.64;99422.88;3597713;80;26750;-81
2022/08/15 14:20:42;;;;;;;10.28;6.97;;;;;;;33.31;38.31;99418.41;3578734;80;98760;-82
2022/08/15 14:25:44;;;;;;;11.43;7.23;;;;;;;33.29;38.62;99405.34;3598662;80;26542;-82
2022/08/15 14:30:45;;;;;;;10.80;6.67;;;;;;;33.29;38.42;99396.03;3589950;80;98765;-84
2022/08/15 14:35:47;;;;;;;9.58;6.90;;;;;;;33.01;38.38;99405.25;3590581;80;25948;-82
2022/08/15 14:40:48;;;;;;;9.10;6.05;;;;;;;32.95;38.71;99404.62;3595990;80;98349;-83
2022/08/15 14:45:51;;;;;;;9.80;6.35;;;;;;;32.90;38.74;99412.64;3602896;80;27679;-84
2022/08/15 14:50:54;;;;;;;12.73;6.35;;;;;;;32.64;38.53;99415.55;3560510;81;98217;-82
2022/08/15 14:55:56;;;;;;;10.20;6.85;;;;;;;32.37;38.98;99401.95;3530334;82;25501;-85
2022/08/15 15:00:59;;;;;;;11.50;7.00;;;;;;;32.31;39.34;99419.81;3563528;81;98271;-82
2022/08/15 15:06:02;;;;;;;10.58;5.97;;;;;;;31.98;39.57;99415.53;3601963;80;25939;-82
2022/08/15 15:11:03;;;;;;;11.97;6.53;;;;;;;31.72;39.46;99423.28;3606603;80;98690;-83
2022/08/15 15:16:05;;;;;;;11.43;6.72;;;;;;;31.47;40.15;99428.38;3606916;80;26012;-82
2022/08/15 15:21:06;;;;;;;9.80;6.67;;;;;;;31.33;40.54;99430.33;3592099;80;98611;-85
2022/08/15 15:26:10;;;;;;;12.03;7.42;;;;;;;31.20;40.46;99428.84;3623043;80;31653;-84
2022/08/15 15:31:16;;;;;;;10.90;6.80;;;;;;;31.00;40.54;99423.06;3586689;80;98658;-82
2022/08/15 15:36:27;;;;;;;10.68;7.28;;;;;;;30.83;40.97;99421.81;3520647;83;27762;-83
2022/08/15 15:41:31;;;;;;;12.35;6.87;;;;;;;30.81;41.19;99422.34;3517484;82;25936;-82
2022/08/15 15:46:35;;;;;;;12.03;6.97;;;;;;;30.73;41.70;99427.10;3544006;82;98529;-81
2022/08/15 15:51:36;;;;;;;10.70;7.25;;;;;;;30.70;41.94;99420.31;3539220;81;26001;-83
2022/08/15 15:56:37;;;;;;;13.50;7.40;;;;;;;30.70;42.27;99423.94;3553445;81;98611;-82
2022/08/15 16:01:39;;;;;;;12.70;7.58;;;;;;;30.71;42.44;99419.00;3536291;82;25995;-83
2022/08/15 16:06:41;;;;;;;11.12;6.60;;;;;;;30.61;42.72;99418.61;3520319;82;98861;-82
2022/08/15 16:11:47;;;;;;;12.98;7.55;;;;;;;30.54;43.38;99412.13;3554135;82;25861;-83
2022/08/15 16:17:14;;;;;;;10.03;6.83;;;;;;;30.38;43.72;99405.25;3527990;82;99151;-81
2022/08/15 16:22:23;;;;;;;12.15;7.45;;;;;;;30.25;44.09;99399.50;3536440;82;26493;-83
2022/08/15 16:27:46;;;;;;;10.25;6.92;;;;;;;30.12;44.11;99400.17;3525161;82;98956;-86
2022/08/15 16:33:11;;;;;;;10.43;6.75;;;;;;;30.02;44.45;99395.38;3544476;81;26446;-85
2022/08/15 16:38:20;;;;;;;12.05;8.05;;;;;;;29.94;44.71;99398.69;3537838;81;98645;-84
2022/08/15 16:43:32;;;;;;;12.37;7.22;;;;;;;29.81;45.05;99394.34;3535768;82;46037;-84
2022/08/15 16:48:39;;;;;;;11.48;6.87;;;;;;;29.64;45.32;99390.26;3523502;81;98758;-84
2022/08/15 16:54:09;;;;;;;20.27;7.90;;;;;;;29.47;45.71;99398.14;3540211;81;25851;-83
2022/08/15 16:59:28;;;;;;;11.10;7.17;;;;;;;29.35;46.13;99395.94;3531657;81;98703;-83
2022/08/15 17:05:06;;;;;;;11.65;6.87;;;;;;;29.21;46.69;99416.96;3488657;81;2505545;-82
2022/08/15 17:10:27;;;;;;;12.88;7.78;;;;;;;29.06;47.18;99422.23;3526080;81;99173;-81
2022/08/15 17:15:43;;;;;;;12.00;7.28;;;;;;;28.87;47.59;99419.25;3535765;81;54008;-84
2022/08/15 17:21:29;;;;;;;12.07;7.45;;;;;;;28.83;48.06;99441.41;3547877;82;98396;-83
2022/08/15 17:26:34;;;;;;;;;;;;;;;28.73;48.35;99443.68;3525194;81;2026317;-83
2022/08/15 17:31:36;;;;;;;10.88;6.92;;;;;;;28.59;49.22;99451.23;3546125;82;26700;-83
2022/08/15 17:36:38;;;;;;;15.15;7.28;;;;;;;28.48;49.03;99460.41;3536413;82;98913;-84
2022/08/15 17:41:43;;;;;;;9.90;6.60;;;;;;;28.34;49.67;99460.08;3548266;81;32052;-82
2022/08/15 17:46:52;;;;;;;14.58;7.03;;;;;;;28.22;49.82;99445.20;3527082;82;98792;-82
2022/08/15 17:52:05;;;;;;;10.93;7.20;;;;;;;28.13;50.12;99456.83;3492692;82;26005;-82
2022/08/15 17:57:11;;;;;;;10.65;6.47;;;;;;;28.04;50.48;99470.47;3544126;81;98761;-82
2022/08/15 18:02:19;;;;;;;12.18;7.33;;;;;;;27.94;50.71;99482.71;3557833;81;26428;-83
2022/08/15 18:07:23;;;;;;;12.45;7.47;;;;;;;27.84;51.00;99481.44;3530224;81;98669;-81
2022/08/15 18:12:25;;;;;;;15.68;7.55;;;;;;;27.79;51.27;99494.20;3490118;82;38571;-84
2022/08/15 18:17:30;;;;;;;12.37;7.53;;;;;;;27.74;51.65;99528.21;3532089;81;98787;-80
2022/08/15 18:22:32;;;;;;;;;;;;;;;27.48;52.59;99528.36;3533378;81;40550;-80
2022/08/15 18:27:44;;;;;;;8.90;5.17;;;;;;;27.34;53.32;99527.95;3535849;81;84635;-81
2022/08/15 18:32:52;;;;;;;9.05;4.80;;;;;;;27.18;52.54;99532.97;3593351;81;25983;-82
2022/08/15 18:38:14;;;;;;;9.18;5.45;;;;;;;27.04;52.72;99536.13;3581654;81;98617;-80
2022/08/15 18:43:15;;;;;;;8.93;5.50;;;;;;;26.95;53.31;99547.65;3588282;81;27357;-80
2022/08/15 18:48:27;;;;;;;8.50;5.37;;;;;;;26.90;54.18;99536.33;3576702;81;98500;-80
2022/08/15 18:53:29;;;;;;;10.90;5.95;;;;;;;26.83;54.85;99539.02;3591958;81;31891;-81
2022/08/15 18:58:35;;;;;;;13.08;5.42;;;;;;;26.77;54.86;99561.45;3577635;81;98580;-81
2022/08/15 19:03:48;;;;;;;9.83;5.50;;;;;;;26.63;55.01;99565.23;3569920;81;25935;-82
2022/08/15 19:08:49;;;;;;;9.55;5.47;;;;;;;26.44;56.79;99538.08;3557083;81;98419;-83
2022/08/15 19:14:18;;;;;;;9.03;5.58;;;;;;;26.31;57.67;99544.04;3577798;81;31642;-82
2022/08/15 19:19:30;;;;;;;9.73;5.17;;;;;;;26.20;58.29;99555.26;3561111;81;98700;-81
2022/08/15 19:24:33;;;;;;;8.50;5.05;;;;;;;26.12;58.94;99569.06;3585391;81;26340;-81
2022/08/15 19:29:56;;;;;;;12.58;5.72;;;;;;;25.95;59.27;99571.63;3579986;81;98395;-81
2022/08/15 19:35:30;;;;;;;12.73;6.42;;;;;;;25.83;60.22;99566.50;3577792;81;42186;-81
2022/08/15 19:41:12;;;;;;;9.88;6.12;;;;;;;25.74;60.80;99568.73;3569226;81;98944;-81
2022/08/15 19:46:45;;;;;;;11.55;5.97;;;;;;;25.64;61.19;99578.02;3582093;81;31792;-81
2022/08/15 19:51:51;;;;;;;13.03;7.08;;;;;;;25.48;61.94;99589.13;3589970;81;25865;-82
2022/08/15 19:57:04;;;;;;;11.50;6.00;;;;;;;25.18;63.77;99606.09;3568527;81;98837;-82
2022/08/15 20:02:35;;;;;;;10.68;5.65;;;;;;;24.89;64.96;99592.18;3600935;81;31657;-82
2022/08/15 20:07:47;;;;;;;11.43;6.30;;;;;;;24.85;65.43;99584.61;3581121;81;98722;-82
2022/08/15 20:13:21;;;;;;;10.53;5.97;;;;;;;24.84;65.63;99589.45;3586660;81;32007;-82
2022/08/15 20:18:45;;;;;;;9.98;5.47;;;;;;;24.83;66.57;99599.78;3589091;81;98705;-81
2022/08/15 20:24:09;;;;;;;10.58;6.10;;;;;;;24.73;67.04;99585.09;3587017;81;31632;-80
2022/08/15 20:29:35;;;;;;;10.38;5.58;;;;;;;24.68;67.52;99578.00;3582324;81;98981;-80
2022/08/15 20:34:43;;;;;;;9.60;5.58;;;;;;;24.65;68.01;99570.53;3572367;81;26447;-79
2022/08/15 20:39:46;;;;;;;9.48;6.05;;;;;;;24.61;68.15;99577.78;3562356;81;98439;-80
2022/08/15 20:45:01;;;;;;;10.90;6.45;;;;;;;24.55;68.52;99578.32;3570528;81;36153;-82
2022/08/15 20:50:06;;;;;;;9.58;5.25;;;;;;;24.49;68.93;99576.07;3550348;81;98774;-82
2022/08/15 20:55:37;;;;;;;12.03;6.33;;;;;;;24.43;69.54;99570.22;3560539;81;67648;-82
2022/08/15 21:01:22;;;;;;;11.33;5.70;;;;;;;24.38;69.63;99564.67;3553293;81;98320;-83
2022/08/15 21:06:42;;;;;;;11.80;6.65;;;;;;;24.30;69.86;99559.95;3559375;81;31744;-82
2022/08/15 21:12:05;;;;;;;10.80;6.08;;;;;;;24.24;70.01;99556.30;3566210;81;31641;-82
2022/08/15 21:17:27;;;;;;;9.60;5.78;;;;;;;24.15;70.68;99564.20;3557991;81;98586;-82
2022/08/15 21:22:57;;;;;;;11.75;6.15;;;;;;;24.08;70.85;99556.84;3557186;81;32263;-82
2022/08/15 21:28:05;;;;;;;8.78;5.95;;;;;;;23.97;71.24;99550.41;3551516;81;98596;-83
2022/08/15 21:33:32;;;;;;;11.30;5.45;;;;;;;23.86;71.44;99554.42;3553003;81;32398;-83
2022/08/15 21:39:05;;;;;;;10.78;6.55;;;;;;;23.77;71.76;99562.95;3537380;82;98755;-83
2022/08/15 21:44:28;;;;;;;9.48;5.83;;;;;;;23.64;71.90;99566.71;3536150;81;32420;-82
2022/08/15 21:49:41;;;;;;;12.82;5.90;;;;;;;23.53;72.46;99567.94;3532107;81;98702;-81
2022/08/15 21:54:56;;;;;;;11.15;6.33;;;;;;;23.35;72.94;99561.73;3544799;81;31735;-81
2022/08/15 22:00:23;;;;;;;10.47;7.13;;;;;;;23.22;73.28;99566.23;3521979;82;98761;-83
2022/08/15 22:05:35;;;;;;;10.03;6.55;;;;;;;23.09;73.62;99567.73;3549783;81;31676;-82
2022/08/15 22:10:36;;;;;;;9.58;5.28;;;;;;;23.00;74.32;99573.45;3528500;82;98401;-81
2022/08/15 22:15:38;;;;;;;11.70;6.72;;;;;;;23.03;74.45;99564.84;3557531;81;31625;-81
2022/08/15 22:20:39;;;;;;;11.18;6.42;;;;;;;23.06;74.77;99565.27;3519946;81;98617;-82
2022/08/15 22:25:50;;;;;;;11.73;6.37;;;;;;;23.07;75.04;99566.84;3542502;81;32342;-82
2022/08/15 22:30:52;;;;;;;12.15;7.33;;;;;;;23.07;75.12;99567.45;3537730;81;98663;-81
2022/08/15 22:35:56;;;;;;;10.38;7.33;;;;;;;23.02;75.05;99577.95;3584780;81;32258;-82
2022/08/15 22:40:58;;;;;;;10.05;6.55;;;;;;;23.01;75.41;99581.40;3561489;81;98679;-82
2022/08/15 22:46:10;;;;;;;14.30;7.15;;;;;;;23.00;75.48;99588.89;3549194;81;32324;-82
2022/08/15 22:51:25;;;;;;;10.63;7.15;;;;;;;22.97;75.67;99588.44;3570062;81;98469;-82
2022/08/15 22:56:29;;;;;;;11.97;7.65;;;;;;;22.92;75.64;99584.27;3546068;81;98573;-82
2022/08/15 23:01:36;;;;;;;12.82;8.05;;;;;;;22.86;75.70;99596.02;3567418;81;31661;-82
2022/08/15 23:06:48;;;;;;;14.10;7.92;;;;;;;22.81;75.80;99600.10;3547818;81;98570;-81
2022/08/15 23:11:49;;;;;;;22.35;8.80;;;;;;;22.78;76.16;99596.22;3557312;81;32394;-82
2022/08/15 23:17:13;;;;;;;13.90;9.58;;;;;;;22.76;76.34;99599.36;3552131;81;98896;-83
2022/08/15 23:22:16;;;;;;;16.65;10.68;;;;;;;22.70;76.22;99597.86;3579198;81;31634;-82
2022/08/15 23:27:21;;;;;;;12.82;9.08;;;;;;;22.63;76.25;99594.02;3555630;82;99086;-81
2022/08/15 23:32:33;;;;;;;11.63;8.53;;;;;;;22.59;76.89;99603.23;3573879;81;32416;-82
2022/08/15 23:37:39;;;;;;;14.58;9.33;;;;;;;22.56;76.89;99595.77;3561743;81;98825;-82
2022/08/15 23:42:52;;;;;;;16.12;9.50;;;;;;;22.55;77.32;99597.02;3565599;81;31695;-82
2022/08/15 23:47:53;;;;;;;13.05;9.18;;;;;;;22.54;77.53;99596.87;3563035;81;98424;-82
2022/08/15 23:52:57;;;;;;;15.40;10.65;;;;;;;22.51;77.46;99598.47;3566437;81;31704;-82
2022/08/15 23:58:00;;;;;;;13.22;9.60;;;;;;;22.49;77.48;99598.14;3546137;82;98968;-82
